createdAt,value
2023-11-11T00:02:03.888Z,98626.28
2023-11-11T00:04:30.533Z,98622.03
2023-11-11T00:06:57.102Z,98617.75
2023-11-11T00:09:24.001Z,98609.19
2023-11-11T00:11:51.127Z,98618.72
2023-11-11T00:14:18.563Z,98612.59
2023-11-11T00:16:45.197Z,98617.69
2023-11-11T00:19:13.554Z,98617.56
2023-11-11T00:21:43.717Z,98615.03
2023-11-11T00:24:11.390Z,98613.38
2023-11-11T00:26:40.244Z,98608.25
2023-11-11T00:29:07.068Z,98610.84
2023-11-11T00:31:35.055Z,98607.50
2023-11-11T00:34:02.827Z,98604.88
2023-11-11T00:36:29.476Z,98605.75
2023-11-11T00:38:56.081Z,98601.38
2023-11-11T00:41:22.657Z,98601.44
2023-11-11T00:43:49.132Z,98609.16
2023-11-11T00:46:15.711Z,98608.31
2023-11-11T00:48:43.012Z,98608.31
2023-11-11T00:51:09.625Z,98604.09
2023-11-11T00:53:36.294Z,98604.97
2023-11-11T00:56:03.794Z,98600.63
2023-11-11T00:58:31.444Z,98606.63
2023-11-11T01:00:58.014Z,98601.56
2023-11-11T01:03:24.783Z,98606.72
2023-11-11T01:05:51.467Z,98599.81
2023-11-11T01:08:18.006Z,98600.69
2023-11-11T01:10:44.515Z,98587.78
2023-11-11T01:13:13.001Z,98596.41
2023-11-11T01:15:39.821Z,98595.56
2023-11-11T01:18:06.552Z,98589.56
2023-11-11T01:20:33.178Z,98597.31
2023-11-11T01:22:59.767Z,98589.56
2023-11-11T01:25:27.238Z,98586.97
2023-11-11T01:27:53.793Z,98586.13
2023-11-11T01:30:21.050Z,98575.84
2023-11-11T01:32:47.734Z,98577.53
2023-11-11T01:35:14.329Z,98581.81
2023-11-11T01:37:40.853Z,98578.31
2023-11-11T01:40:08.208Z,98581.78
2023-11-11T01:42:34.857Z,98581.78
2023-11-11T01:45:01.405Z,98572.31
2023-11-11T01:47:28.288Z,98576.63
2023-11-11T01:49:55.041Z,98568.91
2023-11-11T01:52:21.999Z,98569.78
2023-11-11T01:54:49.476Z,98573.25
2023-11-11T01:57:16.275Z,98568.94
2023-11-11T01:59:42.876Z,98574.97
2023-11-11T02:02:09.448Z,98579.28
2023-11-11T02:04:36.230Z,98580.16
2023-11-11T02:07:03.061Z,98573.28
2023-11-11T02:09:29.979Z,98579.31
2023-11-11T02:11:56.795Z,98582.72
2023-11-11T02:14:23.818Z,98588.63
2023-11-11T02:16:50.699Z,98585.22
2023-11-11T02:19:17.348Z,98586.13
2023-11-11T02:21:44.269Z,98587.84
2023-11-11T02:24:14.227Z,98590.41
2023-11-11T02:26:40.901Z,98586.06
2023-11-11T02:29:07.650Z,98589.50
2023-11-11T02:31:34.199Z,98579.22
2023-11-11T02:34:00.809Z,98576.56
2023-11-11T02:36:27.546Z,98575.75
2023-11-11T02:38:54.106Z,98577.47
2023-11-11T02:41:21.109Z,98580.91
2023-11-11T02:43:47.555Z,98571.38
2023-11-11T02:46:14.548Z,98569.66
2023-11-11T02:48:41.176Z,98568.78
2023-11-11T02:51:07.731Z,98567.97
2023-11-11T02:53:34.289Z,98563.69
2023-11-11T02:56:00.822Z,98557.66
2023-11-11T02:58:27.403Z,98554.19
2023-11-11T03:00:55.340Z,98547.28
2023-11-11T03:03:22.643Z,98534.31
2023-11-11T03:05:50.884Z,98529.03
2023-11-11T03:08:17.993Z,98520.41
2023-11-11T03:10:45.015Z,98524.72
2023-11-11T03:13:11.752Z,98519.47
2023-11-11T03:15:38.908Z,98522.97
2023-11-11T03:18:05.745Z,98513.53
2023-11-11T03:20:32.892Z,98514.31
2023-11-11T03:22:59.468Z,98506.59
2023-11-11T03:25:26.007Z,98509.19
2023-11-11T03:27:52.532Z,98509.22
2023-11-11T03:30:19.200Z,98492.88
2023-11-11T03:32:45.793Z,98495.44
2023-11-11T03:35:12.552Z,98498.03
2023-11-11T03:37:39.034Z,98498.03
2023-11-11T03:40:07.943Z,98505.69
2023-11-11T03:42:34.494Z,98499.59
2023-11-11T03:45:01.027Z,98514.38
2023-11-11T03:47:27.929Z,98512.72
2023-11-11T03:49:54.506Z,98524.66
2023-11-11T03:52:21.012Z,98514.44
2023-11-11T03:54:47.962Z,98511.97
2023-11-11T03:57:14.822Z,98509.44
2023-11-11T03:59:41.378Z,98518.06
2023-11-11T04:02:07.918Z,98512.09
2023-11-11T04:04:34.417Z,98501.69
2023-11-11T04:07:00.920Z,98501.66
2023-11-11T04:09:31.238Z,98488.06
2023-11-11T04:11:57.845Z,98479.50
2023-11-11T04:14:24.550Z,98488.09
2023-11-11T04:16:51.260Z,98490.56
2023-11-11T04:19:18.124Z,98484.50
2023-11-11T04:21:49.541Z,98487.94
2023-11-11T04:24:16.086Z,98480.28
2023-11-11T04:26:42.693Z,98477.63
2023-11-11T04:29:09.248Z,98483.63
2023-11-11T04:31:35.786Z,98485.28
2023-11-11T04:34:02.351Z,98480.22
2023-11-11T04:36:28.986Z,98479.47
2023-11-11T04:38:55.671Z,98478.50
2023-11-11T04:41:22.408Z,98469.88
2023-11-11T04:43:48.939Z,98475.06
2023-11-11T04:46:15.613Z,98473.31
2023-11-11T04:48:43.330Z,98482.75
2023-11-11T04:51:10.013Z,98484.50
2023-11-11T04:53:36.625Z,98475.13
2023-11-11T04:56:04.179Z,98473.28
2023-11-11T04:58:30.757Z,98473.28
2023-11-11T05:00:57.350Z,98472.41
2023-11-11T05:03:24.080Z,98468.16
2023-11-11T05:05:50.632Z,98469.84
2023-11-11T05:08:17.225Z,98483.56
2023-11-11T05:10:43.896Z,98492.22
2023-11-11T05:13:10.579Z,98487.03
2023-11-11T05:15:44.603Z,98493.88
2023-11-11T05:18:11.662Z,98490.53
2023-11-11T05:20:40.645Z,98494.75
2023-11-11T05:23:11.552Z,98499.13
2023-11-11T05:25:38.323Z,98498.22
2023-11-11T05:28:04.946Z,98500.78
2023-11-11T05:30:31.829Z,98496.47
2023-11-11T05:32:58.557Z,98493.97
2023-11-11T05:35:25.227Z,98483.75
2023-11-11T05:37:51.703Z,98487.22
2023-11-11T05:40:20.066Z,98495.75
2023-11-11T05:42:50.381Z,98490.59
2023-11-11T05:45:18.887Z,98482.03
2023-11-11T05:47:46.233Z,98491.41
2023-11-11T05:50:13.169Z,98491.47
2023-11-11T05:52:39.880Z,98503.44
2023-11-11T05:55:09.792Z,98508.63
2023-11-11T05:57:40.520Z,98511.97
2023-11-11T06:00:13.103Z,98511.13
2023-11-11T06:02:39.927Z,98510.31
2023-11-11T06:05:07.251Z,98513.66
2023-11-11T06:07:33.830Z,98517.06
2023-11-11T06:10:00.609Z,98528.25
2023-11-11T06:12:27.441Z,98529.97
2023-11-11T06:14:53.977Z,98531.72
2023-11-11T06:17:20.452Z,98525.69
2023-11-11T06:19:47.098Z,98525.63
2023-11-11T06:22:13.614Z,98534.25
2023-11-11T06:24:40.278Z,98523.19
2023-11-11T06:27:10.094Z,98526.50
2023-11-11T06:29:37.127Z,98531.72
2023-11-11T06:32:03.877Z,98528.25
2023-11-11T06:34:30.457Z,98530.00
2023-11-11T06:36:57.014Z,98536.00
2023-11-11T06:39:23.653Z,98536.81
2023-11-11T06:41:51.045Z,98541.19
2023-11-11T06:44:17.728Z,98525.78
2023-11-11T06:46:44.345Z,98519.75
2023-11-11T06:49:10.845Z,98528.44
2023-11-11T06:51:38.013Z,98520.50
2023-11-11T06:54:05.675Z,98518.72
2023-11-11T06:56:32.306Z,98528.25
2023-11-11T06:58:58.875Z,98523.16
2023-11-11T07:01:25.534Z,98520.53
2023-11-11T07:03:53.079Z,98519.75
2023-11-11T07:06:24.269Z,98526.59
2023-11-11T07:08:52.117Z,98532.59
2023-11-11T07:11:19.371Z,98523.16
2023-11-11T07:13:46.129Z,98517.13
2023-11-11T07:16:14.707Z,98520.56
2023-11-11T07:18:42.080Z,98525.72
2023-11-11T07:21:17.517Z,98524.91
2023-11-11T07:23:44.323Z,98523.22
2023-11-11T07:26:12.798Z,98525.72
2023-11-11T07:28:39.509Z,98526.56
2023-11-11T07:31:06.138Z,98528.31
2023-11-11T07:33:32.662Z,98526.59
2023-11-11T07:35:59.177Z,98522.31
2023-11-11T07:38:25.757Z,98530.91
2023-11-11T07:40:52.755Z,98528.38
2023-11-11T07:43:19.296Z,98520.69
2023-11-11T07:45:45.893Z,98520.63
2023-11-11T07:48:12.797Z,98525.72
2023-11-11T07:50:39.590Z,98524.97
2023-11-11T07:53:06.190Z,98519.00
2023-11-11T07:55:32.664Z,98520.69
2023-11-11T08:00:28.570Z,98517.25
2023-11-11T08:02:55.141Z,98517.16
2023-11-11T08:05:21.740Z,98518.13
2023-11-11T08:07:48.832Z,98518.06
2023-11-11T08:10:15.434Z,98515.53
2023-11-11T08:12:42.030Z,98519.00
2023-11-11T08:15:09.068Z,98515.59
2023-11-11T08:17:35.720Z,98506.09
2023-11-11T08:20:03.239Z,98506.09
2023-11-11T08:22:29.819Z,98511.25
2023-11-11T08:24:56.529Z,98509.56
2023-11-11T08:27:25.702Z,98500.13
2023-11-11T08:29:52.240Z,98507.81
2023-11-11T08:32:18.799Z,98508.63
2023-11-11T08:34:45.626Z,98510.38
2023-11-11T08:37:12.353Z,98504.41
2023-11-11T08:39:38.945Z,98505.28
2023-11-11T08:42:05.815Z,98512.97
2023-11-11T08:44:32.334Z,98506.09
2023-11-11T08:46:58.875Z,98507.81
2023-11-11T08:49:25.567Z,98506.84
2023-11-11T08:51:52.484Z,98511.22
2023-11-11T08:54:19.179Z,98506.09
2023-11-11T08:56:47.238Z,98515.59
2023-11-11T08:59:15.516Z,98511.31
2023-11-11T09:01:42.473Z,98506.19
2023-11-11T09:04:10.248Z,98507.84
2023-11-11T09:06:36.942Z,98511.31
2023-11-11T09:09:04.510Z,98506.19
2023-11-11T09:11:36.695Z,98519.91
2023-11-11T09:14:06.678Z,98513.09
2023-11-11T09:16:34.293Z,98515.66
2023-11-11T09:19:01.633Z,98516.53
2023-11-11T09:21:28.632Z,98509.63
2023-11-11T09:23:55.271Z,98507.06
2023-11-11T09:26:23.064Z,98506.19
2023-11-11T09:28:50.823Z,98510.44
2023-11-11T09:31:17.922Z,98502.69
2023-11-11T09:33:48.585Z,98497.50
2023-11-11T09:36:15.216Z,98493.22
2023-11-11T09:38:41.720Z,98493.22
2023-11-11T09:41:08.232Z,98503.50
2023-11-11T09:43:35.052Z,98493.22
2023-11-11T09:46:04.228Z,98499.28
2023-11-11T09:48:32.356Z,98494.13
2023-11-11T09:51:00.293Z,98486.34
2023-11-11T09:53:27.890Z,98493.22
2023-11-11T09:55:56.386Z,98499.22
2023-11-11T09:58:26.017Z,98489.75
2023-11-11T10:00:52.863Z,98496.66
2023-11-11T10:03:19.700Z,98484.66
2023-11-11T10:05:46.373Z,98481.22
2023-11-11T10:08:12.988Z,98495.00
2023-11-11T10:10:42.055Z,98489.88
2023-11-11T10:13:08.899Z,98494.13
2023-11-11T10:15:36.083Z,98494.09
2023-11-11T10:18:05.561Z,98500.84
2023-11-11T10:20:32.151Z,98500.84
2023-11-11T10:23:01.752Z,98494.03
2023-11-11T10:25:28.347Z,98495.69
2023-11-11T10:27:56.579Z,98493.88
2023-11-11T10:30:28.066Z,98495.63
2023-11-11T10:32:56.107Z,98489.59
2023-11-11T10:35:25.761Z,98490.56
2023-11-11T10:37:52.970Z,98482.00
2023-11-11T10:40:19.880Z,98482.88
2023-11-11T10:42:49.837Z,98495.63
2023-11-11T10:45:17.282Z,98488.72
2023-11-11T10:47:45.384Z,98487.00
2023-11-11T10:50:12.786Z,98488.72
2023-11-11T10:52:41.299Z,98489.56
2023-11-11T10:55:10.193Z,98486.16
2023-11-11T10:57:39.924Z,98490.47
2023-11-11T11:00:18.065Z,98487.84
2023-11-11T11:02:48.390Z,98486.94
2023-11-11T11:05:29.634Z,98487.81
2023-11-11T11:08:07.318Z,98488.66
2023-11-11T11:10:49.715Z,98489.44
2023-11-11T11:13:19.477Z,98487.78
2023-11-11T11:15:46.199Z,98490.38
2023-11-11T11:18:12.982Z,98483.53
2023-11-11T11:20:42.422Z,98486.03
2023-11-11T11:23:12.176Z,98487.72
2023-11-11T11:25:42.454Z,98490.97
2023-11-11T11:28:13.095Z,98492.56
2023-11-11T11:30:43.330Z,98496.84
2023-11-11T11:33:20.511Z,98495.13
2023-11-11T11:35:51.864Z,98494.16
2023-11-11T11:42:23.341Z,98497.44
2023-11-11T11:44:57.534Z,98499.88
2023-11-11T11:47:34.139Z,98492.25
2023-11-11T11:50:02.028Z,98491.38
2023-11-11T11:52:28.635Z,98492.38
2023-11-11T11:54:55.904Z,98494.81
2023-11-11T11:57:28.245Z,98497.44
2023-11-11T12:00:17.013Z,98490.59
2023-11-11T12:02:43.796Z,98497.34
2023-11-11T12:05:11.573Z,98494.84
2023-11-11T12:07:38.863Z,98499.16
2023-11-11T12:10:15.119Z,98503.53
2023-11-11T12:12:44.376Z,98507.88
2023-11-11T12:15:12.220Z,98504.31
2023-11-11T12:17:43.801Z,98505.19
2023-11-11T12:20:16.773Z,98504.31
2023-11-11T12:22:49.349Z,98508.63
2023-11-11T12:25:16.319Z,98506.94
2023-11-11T12:27:45.665Z,98510.38
2023-11-11T12:30:22.981Z,98511.25
2023-11-11T12:33:06.318Z,98507.00
2023-11-11T12:35:38.967Z,98511.31
2023-11-11T12:38:20.934Z,98507.84
2023-11-11T12:40:49.169Z,98510.47
2023-11-11T12:43:17.155Z,98514.72
2023-11-11T12:46:02.559Z,98508.59
2023-11-11T12:48:30.608Z,98513.78
2023-11-11T12:50:57.177Z,98512.09
2023-11-11T12:53:23.669Z,98517.16
2023-11-11T12:56:06.399Z,98513.72
2023-11-11T12:58:33.738Z,98512.00
2023-11-11T13:01:05.596Z,98514.59
2023-11-11T13:03:33.491Z,98520.69
2023-11-11T13:06:01.729Z,98517.16
2023-11-11T13:08:29.839Z,98514.59
2023-11-11T13:10:58.702Z,98507.75
2023-11-11T13:13:25.458Z,98506.97
2023-11-11T13:15:53.088Z,98509.50
2023-11-11T13:18:20.682Z,98512.97
2023-11-11T13:20:48.065Z,98508.69
2023-11-11T13:23:20.523Z,98512.13
2023-11-11T13:25:52.315Z,98521.50
2023-11-11T13:28:19.293Z,98522.38
2023-11-11T13:30:48.382Z,98524.19
2023-11-11T13:33:15.481Z,98523.31
2023-11-11T13:35:47.541Z,98524.13
2023-11-11T13:38:17.693Z,98526.78
2023-11-11T13:40:47.716Z,98526.81
2023-11-11T13:43:15.770Z,98532.91
2023-11-11T13:45:43.331Z,98538.09
2023-11-11T13:48:11.137Z,98537.22
2023-11-11T13:50:37.718Z,98541.56
2023-11-11T13:53:05.877Z,98543.34
2023-11-11T13:55:32.914Z,98544.25
2023-11-11T13:58:01.613Z,98541.66
2023-11-11T14:00:29.181Z,98539.97
2023-11-11T14:03:00.492Z,98545.19
2023-11-11T14:05:27.941Z,98549.34
2023-11-11T14:07:55.645Z,98544.13
2023-11-11T14:10:28.610Z,98546.69
2023-11-11T14:12:56.503Z,98538.13
2023-11-11T14:15:31.598Z,98534.75
2023-11-11T14:17:58.903Z,98541.56
2023-11-11T14:20:25.914Z,98537.31
2023-11-11T14:22:59.088Z,98539.09
2023-11-11T14:25:27.925Z,98543.47
2023-11-11T14:27:55.761Z,98541.63
2023-11-11T14:30:24.893Z,98545.06
2023-11-11T14:32:53.465Z,98549.44
2023-11-11T14:35:21.894Z,98550.22
2023-11-11T14:37:48.976Z,98548.63
2023-11-11T14:40:18.825Z,98546.03
2023-11-11T14:42:50.155Z,98534.91
2023-11-11T14:45:18.204Z,98532.34
2023-11-11T14:47:46.676Z,98533.16
2023-11-11T14:50:14.976Z,98545.22
2023-11-11T14:52:42.854Z,98548.63
2023-11-11T14:55:18.225Z,98545.22
2023-11-11T14:57:46.313Z,98556.41
2023-11-11T15:00:28.614Z,98556.34
2023-11-11T15:02:57.767Z,98550.28
2023-11-11T15:05:25.526Z,98556.25
2023-11-11T15:07:52.432Z,98564.88
2023-11-11T15:10:21.094Z,98558.81
2023-11-11T15:12:52.108Z,98565.66
2023-11-11T15:15:19.020Z,98564.72
2023-11-11T15:17:46.944Z,98563.84
2023-11-11T15:20:19.859Z,98566.31
2023-11-11T15:22:53.547Z,98572.34
2023-11-11T15:25:21.437Z,98574.88
2023-11-11T15:27:51.002Z,98567.06
2023-11-11T15:30:20.495Z,98579.13
2023-11-11T15:32:47.992Z,98570.41
2023-11-11T15:35:16.171Z,98579.00
2023-11-11T15:37:42.928Z,98576.38
2023-11-11T15:40:10.205Z,98590.09
2023-11-11T15:42:37.022Z,98591.81
2023-11-11T15:45:05.005Z,98591.00
2023-11-11T15:47:31.624Z,98596.19
2023-11-11T15:49:59.578Z,98598.84
2023-11-11T15:52:28.260Z,98600.41
2023-11-11T15:54:54.867Z,98603.88
2023-11-11T15:57:21.470Z,98608.25
2023-11-11T15:59:47.963Z,98615.91
2023-11-11T16:02:15.153Z,98619.31
2023-11-11T16:04:42.039Z,98624.59
2023-11-11T16:07:08.692Z,98633.19
2023-11-11T16:09:35.143Z,98639.97
2023-11-11T16:12:01.706Z,98632.19
2023-11-11T16:14:31.464Z,98638.13
2023-11-11T16:17:02.091Z,98650.06
2023-11-11T16:19:28.741Z,98643.97
2023-11-11T16:21:55.289Z,98649.13
2023-11-11T16:24:27.261Z,98654.31
2023-11-11T16:26:55.202Z,98657.78
2023-11-11T16:29:21.981Z,98665.34
2023-11-11T16:31:48.513Z,98666.22
2023-11-11T16:34:20.215Z,98656.00
2023-11-11T16:36:46.782Z,98666.16
2023-11-11T16:39:16.819Z,98673.91
2023-11-11T16:41:48.285Z,98676.53
2023-11-11T16:44:14.975Z,98670.50
2023-11-11T16:46:41.649Z,98670.53
2023-11-11T16:49:09.623Z,98676.38
2023-11-11T16:51:36.440Z,98695.25
2023-11-11T16:54:04.947Z,98693.59
2023-11-11T16:56:32.275Z,98705.72
2023-11-11T16:58:58.907Z,98697.13
2023-11-11T17:01:25.622Z,98702.19
2023-11-11T17:03:54.969Z,98711.59
2023-11-11T17:06:23.505Z,98722.84
2023-11-11T17:08:50.913Z,98724.47
2023-11-11T17:11:17.848Z,98734.59
2023-11-11T17:13:45.072Z,98729.59
2023-11-11T17:16:11.535Z,98732.03
2023-11-11T17:18:38.182Z,98734.69
2023-11-11T17:21:06.072Z,98747.59
2023-11-11T17:23:32.740Z,98744.78
2023-11-11T17:26:00.139Z,98742.09
2023-11-11T17:28:30.371Z,98743.91
2023-11-11T17:30:57.895Z,98751.66
2023-11-11T17:33:35.142Z,98750.69
2023-11-11T17:36:09.072Z,98748.81
2023-11-11T17:38:38.394Z,98753.19
2023-11-11T17:41:08.076Z,98746.25
2023-11-11T17:43:34.664Z,98756.53
2023-11-11T17:46:01.228Z,98759.25
2023-11-11T17:48:27.965Z,98758.38
2023-11-11T17:50:56.009Z,98766.88
2023-11-11T17:53:22.642Z,98767.63
2023-11-11T17:55:49.249Z,98773.72
2023-11-11T17:58:16.001Z,98772.84
2023-11-11T18:00:42.499Z,98774.53
2023-11-11T18:03:09.614Z,98782.19
2023-11-11T18:05:36.269Z,98777.09
2023-11-11T18:08:03.376Z,98779.50
2023-11-11T18:10:30.183Z,98791.63
2023-11-11T18:12:57.722Z,98792.19
2023-11-11T18:15:26.107Z,98788.59
2023-11-11T18:17:53.100Z,98798.81
2023-11-11T18:20:20.205Z,98797.03
2023-11-11T18:22:47.237Z,98805.66
2023-11-11T18:25:14.183Z,98810.94
2023-11-11T18:27:40.830Z,98816.09
2023-11-11T18:30:08.278Z,98814.41
2023-11-11T18:32:34.965Z,98812.75
2023-11-11T18:35:02.091Z,98816.00
2023-11-11T18:37:28.828Z,98830.44
2023-11-11T18:39:55.690Z,98822.66
2023-11-11T18:42:22.523Z,98820.13
2023-11-11T18:44:49.225Z,98823.78
2023-11-11T18:47:16.320Z,98830.53
2023-11-11T18:49:43.765Z,98827.88
2023-11-11T18:52:11.442Z,98833.81
2023-11-11T18:54:38.204Z,98827.69
2023-11-11T18:57:04.990Z,98833.00
2023-11-11T18:59:32.495Z,98826.06
2023-11-11T19:01:59.181Z,98833.72
2023-11-11T19:04:25.853Z,98847.44
2023-11-11T19:06:52.798Z,98847.47
2023-11-11T19:09:19.474Z,98842.34
2023-11-11T19:11:46.286Z,98836.34
2023-11-11T19:14:13.880Z,98843.19
2023-11-11T19:16:42.221Z,98843.91
2023-11-11T19:19:11.878Z,98852.69
2023-11-11T19:21:39.252Z,98844.16
2023-11-11T19:24:10.384Z,98842.31
2023-11-11T19:26:40.859Z,98840.53
2023-11-11T19:29:08.905Z,98852.50
2023-11-11T19:31:35.744Z,98863.28
2023-11-11T19:34:03.197Z,98861.53
2023-11-11T19:36:30.478Z,98865.88
2023-11-11T19:38:57.450Z,98856.41
2023-11-11T19:41:24.184Z,98861.41
2023-11-11T19:43:51.135Z,98865.72
2023-11-11T19:46:18.831Z,98868.22
2023-11-11T19:48:46.549Z,98866.53
2023-11-11T19:51:21.389Z,98869.94
2023-11-11T19:53:47.944Z,98871.72
2023-11-11T19:56:15.152Z,98873.38
2023-11-11T19:58:41.893Z,98873.31
2023-11-11T20:01:09.052Z,98868.94
2023-11-11T20:03:36.003Z,98874.09
2023-11-11T20:06:02.697Z,98868.16
2023-11-11T20:08:29.315Z,98863.81
2023-11-11T20:10:56.400Z,98871.59
2023-11-11T20:13:23.690Z,98875.03
2023-11-11T20:15:50.144Z,98885.34
2023-11-11T20:18:16.669Z,98874.88
2023-11-11T20:20:43.727Z,98880.00
2023-11-11T20:23:10.501Z,98884.25
2023-11-11T20:25:37.639Z,98889.56
2023-11-11T20:28:04.395Z,98883.56
2023-11-11T20:30:32.132Z,98880.88
2023-11-11T20:33:00.666Z,98883.53
2023-11-11T20:35:30.266Z,98894.38
2023-11-11T20:37:57.440Z,98890.03
2023-11-11T20:40:24.382Z,98893.28
2023-11-11T20:42:52.683Z,98891.47
2023-11-11T20:45:19.255Z,98889.91
2023-11-11T20:47:45.785Z,98903.63
2023-11-11T20:50:15.047Z,98903.56
2023-11-11T20:52:45.963Z,98900.22
2023-11-11T20:55:14.655Z,98904.78
2023-11-11T20:57:44.999Z,98917.53
2023-11-11T21:00:13.499Z,98912.28
2023-11-11T21:02:43.668Z,98916.75
2023-11-11T21:05:17.080Z,98917.47
2023-11-11T21:07:46.812Z,98916.50
2023-11-11T21:10:19.727Z,98912.47
2023-11-11T21:12:48.697Z,98926.41
2023-11-11T21:15:20.333Z,98928.28
2023-11-11T21:17:47.580Z,98924.75
2023-11-11T21:20:16.369Z,98932.50
2023-11-11T21:22:43.473Z,98927.22
2023-11-11T21:25:10.738Z,98937.63
2023-11-11T21:27:38.040Z,98935.72
2023-11-11T21:30:05.406Z,98944.41
2023-11-11T21:32:33.364Z,98941.06
2023-11-11T21:35:00.026Z,98944.50
2023-11-11T21:37:26.675Z,98940.97
2023-11-11T21:39:53.187Z,98955.59
2023-11-11T21:42:26.497Z,98943.44
2023-11-11T21:44:53.455Z,98944.41
2023-11-11T21:47:20.004Z,98945.09
2023-11-11T21:49:46.598Z,98956.00
2023-11-11T21:52:15.363Z,98950.91
2023-11-11T21:54:42.517Z,98946.75
2023-11-11T21:57:09.062Z,98943.19
2023-11-11T21:59:35.593Z,98941.63
2023-11-11T22:02:02.192Z,98938.88
2023-11-11T22:04:28.768Z,98956.94
2023-11-11T22:06:55.472Z,98955.00
2023-11-11T22:09:21.972Z,98960.97
2023-11-11T22:11:48.522Z,98968.88
2023-11-11T22:14:15.101Z,98972.22
2023-11-11T22:16:41.834Z,98978.91
2023-11-11T22:19:08.668Z,98969.56
2023-11-11T22:21:35.127Z,98971.13
2023-11-11T22:24:01.689Z,98973.78
2023-11-11T22:26:28.744Z,98966.09
2023-11-11T22:28:55.620Z,98971.31
2023-11-11T22:31:22.317Z,98978.03
2023-11-11T22:33:48.980Z,98977.81
2023-11-11T22:36:15.967Z,98977.94
2023-11-11T22:38:42.458Z,98982.25
2023-11-11T22:41:09.171Z,98976.13
2023-11-11T22:43:35.865Z,98973.53
2023-11-11T22:46:03.940Z,98983.50
2023-11-11T22:48:31.090Z,98982.66
2023-11-11T22:50:58.886Z,98979.97
2023-11-11T22:53:26.257Z,98978.44
2023-11-11T22:55:53.181Z,98978.59
2023-11-11T22:58:20.508Z,98983.50
2023-11-11T23:00:47.981Z,98992.06
2023-11-11T23:03:17.173Z,98983.53
2023-11-11T23:05:47.289Z,98981.66
2023-11-11T23:08:15.400Z,98988.59
2023-11-11T23:10:44.576Z,98986.78
2023-11-11T23:13:12.171Z,98988.63
2023-11-11T23:15:40.219Z,98995.41
2023-11-11T23:18:10.446Z,98992.94
2023-11-11T23:20:40.097Z,99003.25
2023-11-11T23:23:06.865Z,99005.53
2023-11-11T23:25:33.641Z,99014.88
2023-11-11T23:28:00.388Z,99004.53
2023-11-11T23:30:27.511Z,99016.44
2023-11-11T23:32:54.628Z,99010.34
2023-11-11T23:35:21.398Z,99012.97
2023-11-11T23:37:49.098Z,99014.88
2023-11-11T23:40:15.899Z,99024.25
2023-11-11T23:42:43.092Z,99023.59
2023-11-11T23:45:10.435Z,99025.16
2023-11-11T23:47:37.337Z,99023.63
2023-11-11T23:50:07.848Z,99029.50
2023-11-11T23:52:34.694Z,99029.53
2023-11-11T23:55:01.357Z,99023.47
2023-11-11T23:57:27.836Z,99027.78
2023-11-11T23:59:55.009Z,99026.78
